Time;durP1;ratioP1;P1;durP2;ratioP2;P2;SDS_P1;SDS_P2;PMS_P1;PMS_P2;Temp;Humidity;BMP_temperature;BMP_pressure;BME280_temperature;BME280_humidity;BME280_pressure;Samples;Min_cycle;Max_cycle;Signal;HPM_P1;HPM_P2
2023/10/19 00:02:07;;;;;;;12.75;6.75;;;13.90;67.20;;;;;;5058769;28;20057;-42
2023/10/19 00:04:35;;;;;;;9.40;7.05;;;13.90;67.20;;;;;;5057688;28;20048;-43
2023/10/19 00:07:04;;;;;;;11.27;7.32;;;14.00;67.40;;;;;;5058054;28;20048;-42
2023/10/19 00:09:37;;;;;;;11.77;7.75;;;14.00;67.50;;;;;;5061292;28;20071;-41
2023/10/19 00:12:08;;;;;;;9.52;6.93;;;14.00;67.70;;;;;;5057960;28;20076;-41
2023/10/19 00:14:35;;;;;;;9.38;7.25;;;14.00;67.80;;;;;;5056840;28;20082;-44
2023/10/19 00:17:05;;;;;;;12.18;7.32;;;14.00;67.80;;;;;;5054149;28;20405;-46
2023/10/19 00:19:39;;;;;;;11.00;7.60;;;14.10;67.90;;;;;;5060708;28;20068;-45
2023/10/19 00:22:08;;;;;;;14.57;8.15;;;14.10;68.10;;;;;;5060863;28;20057;-42
2023/10/19 00:24:36;;;;;;;12.00;8.10;;;14.10;68.10;;;;;;5061348;28;20060;-45
2023/10/19 00:27:15;;;;;;;13.18;7.80;;;14.10;68.30;;;;;;5060612;28;20048;-44
2023/10/19 00:29:48;;;;;;;11.20;7.50;;;14.10;68.40;;;;;;5060794;28;20412;-42
2023/10/19 00:32:15;;;;;;;10.73;7.77;;;14.20;68.50;;;;;;5060998;28;20432;-43
2023/10/19 00:34:51;;;;;;;11.15;7.75;;;14.20;68.60;;;;;;5060034;28;20047;-46
2023/10/19 00:37:26;;;;;;;12.02;7.55;;;14.20;68.70;;;;;;5061143;28;20045;-45
2023/10/19 00:39:55;;;;;;;9.77;7.20;;;14.20;68.80;;;;;;5055152;28;20048;-42
2023/10/19 00:42:26;;;;;;;8.90;6.80;;;14.30;68.80;;;;;;5058866;28;20064;-42
2023/10/19 00:45:01;;;;;;;10.52;6.90;;;14.30;68.80;;;;;;5057030;28;20803;-47
2023/10/19 00:47:35;;;;;;;8.88;6.40;;;14.30;68.90;;;;;;5053904;28;20443;-43
2023/10/19 00:50:05;;;;;;;9.65;6.90;;;14.30;69.00;;;;;;5059103;28;20049;-42
2023/10/19 00:52:41;;;;;;;9.40;6.80;;;14.30;69.10;;;;;;5060683;28;20053;-42
2023/10/19 00:55:12;;;;;;;10.13;7.30;;;14.30;69.10;;;;;;5058200;28;20055;-44
2023/10/19 00:57:45;;;;;;;10.93;6.38;;;14.40;69.10;;;;;;5058466;28;20052;-43
2023/10/19 01:00:21;;;;;;;8.93;6.70;;;14.30;69.10;;;;;;5057547;28;20060;-42
2023/10/19 01:02:51;;;;;;;10.25;6.95;;;14.40;69.00;;;;;;5061478;28;20481;-43
2023/10/19 01:05:22;;;;;;;7.97;6.72;;;14.40;69.00;;;;;;5062486;28;20048;-42
2023/10/19 01:07:56;;;;;;;9.00;6.93;;;14.40;69.00;;;;;;5062541;28;20044;-44
2023/10/19 01:10:28;;;;;;;9.20;7.15;;;14.40;68.90;;;;;;5061347;28;20113;-46
2023/10/19 01:12:59;;;;;;;10.80;7.60;;;14.40;68.90;;;;;;5060303;28;20048;-44
2023/10/19 01:15:31;;;;;;;9.43;7.35;;;14.40;68.90;;;;;;5061665;28;20385;-44
2023/10/19 01:18:01;;;;;;;11.93;8.35;;;14.40;68.90;;;;;;5061876;28;20048;-44
2023/10/19 01:20:48;;;;;;;13.18;7.85;;;14.40;69.10;;;;;;5062277;28;20060;-44
2023/10/19 01:23:23;;;;;;;10.20;7.60;;;14.40;69.30;;;;;;5061769;28;20048;-45
2023/10/19 01:25:59;;;;;;;11.48;7.82;;;14.40;69.00;;;;;;5061606;28;20048;-46
2023/10/19 01:28:41;;;;;;;11.60;7.60;;;14.40;69.00;;;;;;5062906;28;20064;-42
2023/10/19 01:31:14;;;;;;;11.75;7.22;;;14.40;69.00;;;;;;5059682;28;20948;-44
2023/10/19 01:33:43;;;;;;;12.90;7.07;;;14.30;68.80;;;;;;5059628;28;20511;-45
2023/10/19 01:36:15;;;;;;;11.10;7.93;;;14.40;68.90;;;;;;5061621;28;20052;-42
2023/10/19 01:38:43;;;;;;;10.63;6.55;;;14.30;69.00;;;;;;5061307;28;20059;-44
2023/10/19 01:41:14;;;;;;;10.68;7.78;;;14.30;69.10;;;;;;5061190;28;20064;-44
2023/10/19 01:43:42;;;;;;;10.85;7.63;;;14.30;69.10;;;;;;5060540;28;20045;-43
2023/10/19 01:46:13;;;;;;;11.52;7.45;;;14.30;69.20;;;;;;5060009;28;20388;-40
2023/10/19 01:48:40;;;;;;;10.02;7.53;;;14.30;69.40;;;;;;5062337;28;20476;-41
2023/10/19 01:51:11;;;;;;;9.43;7.25;;;14.30;69.60;;;;;;5057739;28;20071;-44
2023/10/19 01:53:39;;;;;;;9.68;7.40;;;14.30;69.70;;;;;;5058498;28;20048;-43
2023/10/19 01:56:10;;;;;;;12.80;7.82;;;14.30;69.90;;;;;;5059064;28;20258;-41
2023/10/19 01:58:37;;;;;;;9.85;6.78;;;14.30;70.20;;;;;;5058526;28;20057;-40
2023/10/19 02:01:14;;;;;;;10.77;7.82;;;14.30;70.10;;;;;;5059523;28;20052;-43
2023/10/19 02:03:42;;;;;;;9.65;7.20;;;14.30;70.30;;;;;;5058524;28;20044;-42
2023/10/19 02:06:16;;;;;;;10.63;7.55;;;14.30;70.30;;;;;;5059964;28;20067;-42
2023/10/19 02:08:47;;;;;;;11.35;7.07;;;14.30;70.40;;;;;;5060852;28;20048;-41
2023/10/19 02:11:17;;;;;;;9.05;6.88;;;14.30;70.50;;;;;;5060221;28;20044;-44
2023/10/19 02:13:46;;;;;;;10.40;7.43;;;14.30;70.40;;;;;;5042155;28;20049;-43
2023/10/19 02:16:15;;;;;;;12.15;7.80;;;14.30;71.00;;;;;;5040604;28;20045;-41
2023/10/19 02:18:43;;;;;;;11.65;7.63;;;14.30;70.20;;;;;;5040635;28;20060;-42
2023/10/19 02:21:11;;;;;;;9.85;7.57;;;14.30;70.30;;;;;;5040733;28;20409;-41
2023/10/19 02:24:28;;;;;;;10.85;7.57;;;14.30;70.20;;;;;;5037419;28;20056;-42
2023/10/19 02:26:57;;;;;;;10.90;6.97;;;14.30;70.40;;;;;;5036857;28;20056;-41
2023/10/19 02:29:25;;;;;;;9.13;7.22;;;14.30;69.90;;;;;;5040178;28;20068;-43
2023/10/19 02:31:53;;;;;;;9.05;7.07;;;14.20;69.70;;;;;;5037387;28;20045;-43
2023/10/19 02:34:20;;;;;;;9.98;7.13;;;14.30;69.60;;;;;;5040084;28;20048;-41
2023/10/19 02:36:47;;;;;;;9.90;7.47;;;14.20;69.50;;;;;;5041487;28;20056;-40
2023/10/19 02:39:17;;;;;;;9.63;7.43;;;14.20;69.60;;;;;;5037950;28;20547;-43
2023/10/19 02:41:46;;;;;;;17.45;8.70;;;14.20;69.80;;;;;;5038849;28;20057;-43
2023/10/19 02:44:22;;;;;;;9.00;7.05;;;14.20;70.00;;;;;;5037016;28;20393;-41
2023/10/19 02:46:50;;;;;;;11.02;7.20;;;14.20;70.20;;;;;;5038553;28;20068;-45
2023/10/19 02:49:19;;;;;;;11.48;8.45;;;14.20;70.30;;;;;;5037043;28;20052;-45
2023/10/19 02:51:46;;;;;;;11.63;8.75;;;14.20;70.50;;;;;;5040371;28;20048;-41
2023/10/19 02:54:19;;;;;;;13.77;8.75;;;14.20;70.90;;;;;;5038946;28;20059;-41
2023/10/19 02:56:49;;;;;;;10.30;8.18;;;14.30;71.10;;;;;;5038055;28;20048;-42
2023/10/19 02:59:22;;;;;;;12.23;8.85;;;14.30;71.30;;;;;;5039469;28;20056;-42
2023/10/19 03:01:48;;;;;;;10.35;8.27;;;14.30;71.70;;;;;;5036842;28;20053;-40
2023/10/19 03:04:16;;;;;;;12.10;8.73;;;14.30;71.70;;;;;;5038622;28;20045;-42
2023/10/19 03:06:43;;;;;;;12.77;9.07;;;14.40;71.90;;;;;;5039345;28;20053;-42
2023/10/19 03:09:15;;;;;;;11.40;8.65;;;14.40;72.00;;;;;;5040499;28;20048;-41
2023/10/19 03:11:42;;;;;;;11.93;8.93;;;14.40;72.00;;;;;;5038747;28;20439;-46
2023/10/19 03:14:11;;;;;;;11.65;7.72;;;14.40;72.00;;;;;;5038000;28;20497;-45
2023/10/19 03:16:41;;;;;;;12.82;8.52;;;14.50;72.10;;;;;;5036285;28;20061;-42
2023/10/19 03:19:08;;;;;;;11.95;7.80;;;14.50;72.20;;;;;;5037762;28;20052;-40
2023/10/19 03:21:42;;;;;;;11.77;8.18;;;14.50;72.00;;;;;;5037728;28;20485;-41
2023/10/19 03:24:22;;;;;;;11.73;8.05;;;14.60;72.20;;;;;;5035437;28;20500;-40
2023/10/19 03:26:49;;;;;;;12.52;8.07;;;14.60;72.00;;;;;;5039894;28;20049;-43
2023/10/19 03:29:22;;;;;;;14.43;8.98;;;14.60;71.90;;;;;;5036692;28;20056;-43
2023/10/19 03:31:51;;;;;;;11.73;8.50;;;14.70;71.90;;;;;;5032129;28;20041;-47
2023/10/19 03:34:18;;;;;;;13.98;8.82;;;14.70;72.00;;;;;;5034482;28;20603;-43
2023/10/19 03:36:46;;;;;;;15.00;8.45;;;14.70;71.80;;;;;;5045090;28;20056;-44
2023/10/19 03:39:14;;;;;;;15.18;8.35;;;14.70;71.70;;;;;;5038087;28;20760;-40
2023/10/19 03:41:44;;;;;;;10.73;8.13;;;14.70;71.80;;;;;;5038626;28;20493;-44
2023/10/19 03:44:16;;;;;;;13.73;9.10;;;14.70;71.80;;;;;;5034766;28;20049;-42
2023/10/19 03:46:52;;;;;;;11.93;8.40;;;14.70;71.70;;;;;;5035325;28;20136;-42
2023/10/19 03:49:21;;;;;;;14.00;9.48;;;14.70;71.40;;;;;;5038719;28;20083;-41
2023/10/19 03:52:19;;;;;;;14.50;9.32;;;14.70;71.40;;;;;;5034293;28;20052;-44
2023/10/19 03:54:47;;;;;;;12.73;9.35;;;14.70;71.10;;;;;;5037067;28;20048;-42
2023/10/19 03:57:19;;;;;;;10.65;8.73;;;14.70;71.00;;;;;;5038686;28;20405;-42
2023/10/19 03:59:50;;;;;;;14.60;9.20;;;14.70;71.00;;;;;;5036976;28;20060;-42
2023/10/19 04:02:20;;;;;;;14.20;9.23;;;14.70;71.10;;;;;;5034181;28;20663;-41
2023/10/19 04:04:49;;;;;;;13.05;8.68;;;14.70;71.10;;;;;;5034999;28;20053;-42
2023/10/19 04:07:20;;;;;;;14.07;9.73;;;14.70;71.80;;;;;;5037741;28;20393;-46
2023/10/19 04:10:16;;;;;;;14.32;8.88;;;14.70;71.30;;;;;;5037405;28;20060;-43
2023/10/19 04:12:54;;;;;;;11.82;8.68;;;14.60;71.30;;;;;;5036913;28;20052;-41
2023/10/19 04:15:22;;;;;;;11.65;8.85;;;14.60;71.30;;;;;;5034798;28;20057;-41
2023/10/19 04:17:49;;;;;;;11.75;8.43;;;14.60;71.60;;;;;;5032345;28;20049;-41
2023/10/19 04:20:28;;;;;;;11.98;8.68;;;14.60;71.80;;;;;;5035050;28;20057;-44
2023/10/19 04:22:58;;;;;;;71.25;36.28;;;14.60;72.10;;;;;;5035795;28;20052;-42
2023/10/19 04:25:27;;;;;;;47.42;26.50;;;14.60;72.20;;;;;;5033867;28;20052;-42
2023/10/19 04:27:56;;;;;;;22.63;13.88;;;14.60;72.40;;;;;;5037716;28;20049;-44
2023/10/19 04:30:24;;;;;;;15.75;10.15;;;14.70;73.30;;;;;;5034491;28;20062;-42
2023/10/19 04:32:52;;;;;;;12.65;9.07;;;14.60;72.80;;;;;;5037080;28;20409;-42
2023/10/19 04:35:22;;;;;;;13.23;8.45;;;14.70;73.80;;;;;;5037291;28;20055;-42
2023/10/19 04:37:50;;;;;;;12.23;8.52;;;14.70;73.40;;;;;;5039223;28;20061;-41
2023/10/19 04:40:17;;;;;;;11.25;7.93;;;14.80;73.50;;;;;;5041436;28;20057;-44
2023/10/19 04:42:45;;;;;;;12.10;8.48;;;14.80;73.40;;;;;;5041466;28;20049;-44
2023/10/19 04:45:13;;;;;;;13.27;8.75;;;14.80;74.10;;;;;;5041745;28;20057;-42
2023/10/19 04:47:41;;;;;;;12.38;8.27;;;14.80;73.50;;;;;;5041176;28;20409;-41
2023/10/19 04:50:10;;;;;;;11.95;8.25;;;14.90;73.50;;;;;;5040716;28;20044;-42
2023/10/19 04:52:39;;;;;;;14.45;8.82;;;14.90;73.40;;;;;;5038952;28;20049;-44
2023/10/19 04:55:08;;;;;;;11.60;7.93;;;14.90;73.30;;;;;;5041169;28;20057;-45
2023/10/19 04:57:35;;;;;;;140.75;70.50;;;14.90;73.10;;;;;;5040347;28;20049;-43
2023/10/19 05:00:03;;;;;;;64.82;34.60;;;15.00;73.00;;;;;;5037365;28;20057;-42
2023/10/19 05:02:30;;;;;;;27.88;16.98;;;15.00;73.10;;;;;;5037211;28;20087;-42
2023/10/19 05:04:57;;;;;;;16.83;10.82;;;15.00;73.10;;;;;;5037248;28;20061;-46
2023/10/19 05:07:26;;;;;;;13.50;9.85;;;15.00;73.00;;;;;;5036896;28;20053;-42
2023/10/19 05:09:55;;;;;;;12.95;9.18;;;15.00;73.10;;;;;;5040207;28;20068;-42
2023/10/19 05:12:23;;;;;;;12.85;9.65;;;15.00;73.20;;;;;;5039927;28;20057;-44
2023/10/19 05:14:50;;;;;;;14.32;9.18;;;15.10;73.10;;;;;;5040188;28;20053;-44
2023/10/19 05:17:21;;;;;;;12.38;9.43;;;15.10;73.10;;;;;;5039982;28;20060;-43
2023/10/19 05:19:48;;;;;;;14.80;9.93;;;15.10;73.00;;;;;;5040376;28;20063;-41
2023/10/19 05:22:16;;;;;;;13.48;9.60;;;15.10;72.90;;;;;;5040637;28;20048;-42
2023/10/19 05:24:43;;;;;;;16.15;9.15;;;15.10;72.80;;;;;;5037613;28;20064;-41
2023/10/19 05:27:14;;;;;;;14.48;9.77;;;15.10;72.80;;;;;;5038278;28;20053;-40
2023/10/19 05:29:41;;;;;;;15.73;10.57;;;15.20;73.00;;;;;;5034357;28;20044;-42
2023/10/19 05:32:09;;;;;;;13.68;8.90;;;15.10;72.80;;;;;;5031999;28;20057;-42
2023/10/19 05:34:36;;;;;;;17.88;9.30;;;15.20;72.90;;;;;;5038901;28;20053;-43
2023/10/19 05:37:05;;;;;;;14.23;9.73;;;15.20;72.80;;;;;;5039692;28;20056;-43
2023/10/19 05:39:33;;;;;;;12.43;8.48;;;15.20;72.70;;;;;;5038629;28;20613;-41
2023/10/19 05:42:01;;;;;;;17.67;10.10;;;15.20;72.70;;;;;;5040947;28;20520;-42
2023/10/19 05:44:30;;;;;;;18.90;9.43;;;15.20;72.60;;;;;;5038853;28;20053;-45
2023/10/19 05:46:58;;;;;;;24.17;11.32;;;15.20;72.70;;;;;;5035010;28;20061;-44
2023/10/19 05:49:25;;;;;;;23.17;10.90;;;15.20;72.70;;;;;;5034918;28;20059;-41
2023/10/19 05:51:53;;;;;;;17.75;11.00;;;15.20;72.70;;;;;;5036689;28;20409;-41
2023/10/19 05:54:23;;;;;;;16.13;11.02;;;15.20;72.70;;;;;;5036010;28;20068;-43
2023/10/19 05:56:51;;;;;;;17.58;10.85;;;15.20;72.80;;;;;;5037422;28;20052;-41
2023/10/19 05:59:19;;;;;;;18.35;10.95;;;15.20;72.90;;;;;;5034497;28;20497;-42
2023/10/19 06:01:47;;;;;;;16.58;10.82;;;15.20;72.90;;;;;;5030616;28;20478;-41
2023/10/19 06:04:15;;;;;;;20.38;12.40;;;15.20;72.90;;;;;;5037555;28;20060;-42
2023/10/19 06:06:42;;;;;;;20.48;10.52;;;15.30;72.90;;;;;;5039195;28;20064;-42
2023/10/19 06:09:09;;;;;;;18.20;12.15;;;15.20;72.90;;;;;;5037775;28;20052;-42
2023/10/19 06:11:42;;;;;;;20.17;11.45;;;15.30;73.00;;;;;;5036716;28;20057;-42
2023/10/19 06:14:09;;;;;;;16.98;10.88;;;15.30;73.00;;;;;;5038146;28;20049;-43
2023/10/19 06:16:37;;;;;;;40.53;13.07;;;15.30;73.00;;;;;;5035817;28;20482;-43
2023/10/19 06:19:06;;;;;;;21.23;12.00;;;15.30;73.00;;;;;;5037819;28;20106;-41
2023/10/19 06:21:34;;;;;;;17.65;11.05;;;15.30;73.20;;;;;;5038604;28;20494;-42
2023/10/19 06:24:02;;;;;;;17.88;10.68;;;15.30;73.10;;;;;;5039295;28;20063;-45
2023/10/19 06:26:29;;;;;;;19.13;11.30;;;15.30;73.10;;;;;;5036917;28;20059;-46
2023/10/19 06:28:58;;;;;;;13.90;10.05;;;15.30;73.10;;;;;;5037411;28;20481;-43
2023/10/19 06:31:28;;;;;;;17.55;11.10;;;15.30;73.10;;;;;;5040737;28;20080;-43
2023/10/19 06:33:56;;;;;;;14.98;10.20;;;15.30;73.20;;;;;;5039249;28;20049;-46
2023/10/19 06:36:25;;;;;;;20.83;10.77;;;15.30;73.20;;;;;;5042029;28;20488;-43
2023/10/19 06:38:54;;;;;;;19.35;11.02;;;15.30;73.10;;;;;;5034665;28;20112;-43
2023/10/19 06:41:22;;;;;;;17.08;11.32;;;15.30;73.10;;;;;;5035431;28;20428;-43
2023/10/19 06:43:49;;;;;;;18.35;10.73;;;15.40;73.30;;;;;;5040183;28;20533;-45
2023/10/19 06:46:17;;;;;;;16.95;10.90;;;15.40;73.30;;;;;;5036574;28;20052;-45
2023/10/19 06:48:44;;;;;;;16.25;10.90;;;15.40;73.30;;;;;;5037629;28;20045;-45
2023/10/19 06:51:11;;;;;;;17.15;10.25;;;15.40;73.40;;;;;;5035286;28;20064;-47
2023/10/19 06:53:41;;;;;;;19.55;11.35;;;15.40;73.40;;;;;;5038165;28;20052;-43
2023/10/19 06:56:08;;;;;;;14.45;10.23;;;15.40;73.60;;;;;;5039339;28;20053;-43
2023/10/19 06:58:36;;;;;;;18.00;9.40;;;15.40;73.50;;;;;;5040469;28;20539;-45
2023/10/19 07:01:08;;;;;;;18.17;11.02;;;15.50;73.50;;;;;;5035997;28;20494;-46
2023/10/19 07:03:35;;;;;;;16.08;10.20;;;15.50;73.60;;;;;;5034812;28;20076;-48
2023/10/19 07:06:03;;;;;;;17.60;9.07;;;15.50;73.60;;;;;;5040214;28;20061;-44
2023/10/19 07:08:31;;;;;;;17.60;9.88;;;15.50;73.60;;;;;;5036966;28;20056;-43
2023/10/19 07:11:00;;;;;;;12.18;8.65;;;15.50;73.80;;;;;;5037891;28;20057;-44
2023/10/19 07:13:32;;;;;;;11.52;8.82;;;15.50;73.90;;;;;;5041148;28;20052;-47
2023/10/19 07:16:00;;;;;;;12.23;8.93;;;15.50;74.00;;;;;;5035958;28;20417;-44
2023/10/19 07:18:28;;;;;;;13.93;9.50;;;15.60;73.90;;;;;;5038776;28;20057;-44
2023/10/19 07:21:02;;;;;;;16.33;9.32;;;15.60;73.80;;;;;;5038518;28;20048;-42
2023/10/19 07:23:31;;;;;;;14.52;8.65;;;15.60;74.00;;;;;;5039121;28;20060;-43
2023/10/19 07:26:00;;;;;;;12.77;8.70;;;15.60;74.00;;;;;;5040020;28;20465;-45
2023/10/19 07:28:28;;;;;;;13.43;8.50;;;15.60;74.10;;;;;;5039473;28;20053;-47
2023/10/19 07:30:55;;;;;;;15.68;9.38;;;15.70;74.20;;;;;;5037183;28;20489;-44
2023/10/19 07:33:23;;;;;;;13.07;8.43;;;15.70;74.30;;;;;;5033178;28;20638;-41
2023/10/19 07:35:54;;;;;;;16.10;8.40;;;15.70;74.30;;;;;;5038302;28;21128;-43
2023/10/19 07:38:23;;;;;;;19.30;8.65;;;15.80;74.40;;;;;;5032127;28;20532;-42
2023/10/19 07:40:52;;;;;;;12.05;8.15;;;15.80;74.50;;;;;;5036385;28;20508;-46
2023/10/19 07:43:21;;;;;;;12.13;7.57;;;15.80;74.60;;;;;;5035788;28;20049;-44
2023/10/19 07:45:49;;;;;;;12.50;7.93;;;15.90;74.80;;;;;;5032664;28;20060;-42
2023/10/19 07:48:16;;;;;;;13.10;7.47;;;15.90;74.80;;;;;;5035636;28;20048;-42
2023/10/19 07:50:44;;;;;;;13.93;7.38;;;15.90;74.70;;;;;;5033819;28;20041;-43
2023/10/19 07:53:11;;;;;;;9.45;6.78;;;15.90;74.70;;;;;;5036601;28;20056;-42
2023/10/19 07:55:39;;;;;;;13.27;7.97;;;16.00;74.80;;;;;;5036972;28;20064;-41
2023/10/19 07:58:07;;;;;;;10.82;7.15;;;16.00;74.90;;;;;;5036845;28;20044;-43
2023/10/19 08:00:36;;;;;;;14.07;7.15;;;16.00;75.00;;;;;;5032201;28;20060;-44
2023/10/19 08:03:04;;;;;;;9.00;6.22;;;16.10;75.10;;;;;;5035619;28;20060;-42
2023/10/19 08:05:31;;;;;;;14.23;6.70;;;16.10;74.90;;;;;;5036071;28;20520;-45
2023/10/19 08:08:00;;;;;;;9.95;6.57;;;16.20;75.10;;;;;;5036607;28;20056;-42
2023/10/19 08:10:27;;;;;;;9.45;6.10;;;16.20;75.10;;;;;;5034783;28;20064;-45
2023/10/19 08:12:55;;;;;;;11.23;6.10;;;16.30;75.30;;;;;;5034062;28;20052;-46
2023/10/19 08:15:22;;;;;;;11.63;5.30;;;16.30;75.30;;;;;;5037109;28;20049;-46
2023/10/19 08:17:53;;;;;;;9.07;5.97;;;16.40;75.30;;;;;;5034094;28;20490;-43
2023/10/19 08:20:24;;;;;;;8.77;5.78;;;16.40;75.20;;;;;;5028145;28;20132;-43
2023/10/19 08:22:51;;;;;;;10.65;5.90;;;16.40;75.00;;;;;;5038275;28;20071;-41
2023/10/19 08:25:20;;;;;;;9.07;5.93;;;16.50;75.00;;;;;;5037526;28;20057;-42
2023/10/19 08:27:49;;;;;;;9.07;5.63;;;16.50;75.00;;;;;;5037173;28;20060;-41
2023/10/19 08:30:18;;;;;;;8.77;5.47;;;16.60;75.10;;;;;;5034431;28;20569;-42
2023/10/19 08:32:47;;;;;;;9.02;4.70;;;16.60;74.90;;;;;;5035720;28;20068;-41
2023/10/19 08:35:18;;;;;;;11.15;4.95;;;16.60;75.00;;;;;;5034553;28;20052;-42
2023/10/19 08:37:46;;;;;;;9.77;4.43;;;16.80;75.20;;;;;;5039424;28;20059;-42
2023/10/19 08:40:15;;;;;;;6.13;4.07;;;16.80;75.00;;;;;;5031048;28;20053;-41
2023/10/19 08:42:43;;;;;;;9.00;4.35;;;16.80;75.20;;;;;;5034454;28;20512;-43
2023/10/19 08:45:12;;;;;;;10.75;4.43;;;16.90;75.10;;;;;;5035766;28;20057;-42
2023/10/19 08:47:47;;;;;;;8.10;4.05;;;17.00;75.20;;;;;;5033141;28;20061;-42
2023/10/19 08:50:16;;;;;;;8.25;4.18;;;17.00;75.20;;;;;;5033094;28;20056;-45
2023/10/19 08:52:44;;;;;;;7.05;3.65;;;17.10;75.30;;;;;;5039018;28;20140;-41
2023/10/19 08:55:13;;;;;;;13.68;3.55;;;17.10;75.40;;;;;;5037181;28;20048;-45
2023/10/19 08:57:40;;;;;;;9.52;2.90;;;17.10;75.10;;;;;;5039115;28;20053;-43
2023/10/19 09:00:09;;;;;;;10.15;3.70;;;17.20;75.10;;;;;;5032301;28;20049;-42
2023/10/19 09:02:36;;;;;;;7.63;3.38;;;17.20;74.90;;;;;;5037355;28;20068;-43
2023/10/19 09:05:07;;;;;;;7.30;2.90;;;17.20;74.80;;;;;;5037556;28;20057;-43
2023/10/19 09:07:36;;;;;;;10.32;3.20;;;17.30;75.10;;;;;;5036965;28;20061;-42
2023/10/19 09:10:05;;;;;;;8.35;3.00;;;17.30;74.90;;;;;;5036227;28;20045;-44
2023/10/19 09:12:33;;;;;;;7.32;2.70;;;17.40;74.80;;;;;;5037227;28;20061;-42
2023/10/19 09:15:00;;;;;;;7.10;2.63;;;17.40;74.80;;;;;;5035791;28;20417;-42
2023/10/19 09:17:31;;;;;;;9.02;2.78;;;17.40;74.60;;;;;;5037558;28;20055;-43
2023/10/19 09:20:02;;;;;;;7.47;2.72;;;17.50;74.70;;;;;;5038103;28;20056;-43
2023/10/19 09:22:44;;;;;;;7.60;2.53;;;17.50;74.70;;;;;;5038546;28;20076;-43
2023/10/19 09:25:11;;;;;;;8.73;2.58;;;17.50;75.20;;;;;;5041516;28;20057;-44
2023/10/19 09:27:38;;;;;;;10.60;2.70;;;17.60;75.20;;;;;;5040562;28;20057;-44
2023/10/19 09:30:09;;;;;;;10.13;2.92;;;17.60;75.40;;;;;;5040256;28;20516;-42
2023/10/19 09:32:37;;;;;;;6.22;1.92;;;17.70;75.50;;;;;;5040564;28;20485;-42
2023/10/19 09:35:05;;;;;;;9.82;2.25;;;17.70;75.60;;;;;;5042496;28;20611;-42
2023/10/19 09:37:32;;;;;;;4.93;1.83;;;17.80;76.50;;;;;;5041005;28;20053;-42
2023/10/19 09:40:02;;;;;;;8.85;2.17;;;17.80;75.60;;;;;;5040868;28;20053;-44
2023/10/19 09:42:31;;;;;;;5.80;2.08;;;17.90;75.30;;;;;;5040938;28;20053;-43
2023/10/19 09:45:05;;;;;;;9.73;2.75;;;18.00;74.90;;;;;;5038965;28;20059;-42
2023/10/19 09:47:39;;;;;;;8.55;1.95;;;18.10;74.50;;;;;;5039554;28;20053;-42
2023/10/19 09:50:07;;;;;;;8.57;2.75;;;18.10;74.40;;;;;;5040737;28;20049;-45
2023/10/19 09:52:35;;;;;;;5.85;1.95;;;18.10;74.30;;;;;;5040848;28;20049;-42
2023/10/19 09:55:14;;;;;;;6.88;2.05;;;18.20;74.20;;;;;;5043061;28;20060;-46
2023/10/19 09:57:52;;;;;;;8.90;1.95;;;18.30;73.80;;;;;;5042725;28;20080;-42
2023/10/19 10:00:23;;;;;;;7.30;2.00;;;18.30;74.00;;;;;;5039108;28;20423;-43
2023/10/19 10:02:51;;;;;;;5.35;1.90;;;18.30;73.70;;;;;;5042423;28;20076;-43
2023/10/19 10:05:47;;;;;;;7.03;2.00;;;18.40;73.70;;;;;;5044314;28;20060;-44
2023/10/19 10:08:31;;;;;;;6.90;2.10;;;18.40;73.90;;;;;;5042711;28;20065;-42
2023/10/19 10:11:13;;;;;;;6.25;1.85;;;18.50;73.50;;;;;;5041273;28;20048;-45
2023/10/19 10:13:42;;;;;;;5.60;1.70;;;18.50;73.50;;;;;;5042852;28;20421;-44
2023/10/19 10:16:09;;;;;;;5.32;1.75;;;18.50;73.80;;;;;;5041614;28;20048;-46
2023/10/19 10:18:36;;;;;;;12.85;2.30;;;18.60;73.60;;;;;;5038622;28;20053;-43
2023/10/19 10:21:08;;;;;;;3.55;1.40;;;18.60;73.60;;;;;;5041217;28;20060;-45
2023/10/19 10:23:42;;;;;;;11.05;2.13;;;18.70;73.70;;;;;;5041342;28;20056;-49
2023/10/19 10:26:13;;;;;;;9.48;2.40;;;18.80;71.70;;;;;;5042587;28;20075;-45
2023/10/19 10:28:41;;;;;;;8.25;1.90;;;18.80;71.90;;;;;;5043685;28;20049;-46
2023/10/19 10:31:16;;;;;;;11.70;1.98;;;18.80;70.10;;;;;;5037707;28;20060;-45
2023/10/19 10:33:46;;;;;;;9.35;1.98;;;18.90;69.20;;;;;;5039136;28;20060;-46
2023/10/19 10:36:14;;;;;;;8.52;1.63;;;18.90;68.90;;;;;;5039470;28;20067;-47
2023/10/19 10:38:42;;;;;;;7.68;2.20;;;18.90;68.80;;;;;;5039561;28;20170;-47
2023/10/19 10:41:10;;;;;;;8.23;2.10;;;18.90;67.90;;;;;;5042358;28;20053;-47
2023/10/19 10:43:56;;;;;;;9.20;2.00;;;19.00;68.10;;;;;;5040754;28;20057;-45
2023/10/19 10:46:25;;;;;;;6.85;1.38;;;19.00;68.10;;;;;;5039309;28;20406;-47
2023/10/19 10:48:52;;;;;;;6.07;1.58;;;19.00;68.30;;;;;;5040062;28;20057;-47
2023/10/19 10:51:22;;;;;;;8.70;1.70;;;19.00;68.70;;;;;;5039625;28;20562;-44
2023/10/19 10:53:51;;;;;;;8.93;1.75;;;19.10;68.40;;;;;;5037401;28;20056;-45
2023/10/19 10:56:22;;;;;;;6.95;1.30;;;19.10;68.50;;;;;;5040505;28;20060;-44
2023/10/19 10:58:50;;;;;;;4.32;1.25;;;19.10;68.60;;;;;;5039661;28;20055;-46
2023/10/19 11:01:29;;;;;;;8.60;1.83;;;19.20;68.60;;;;;;5039273;28;20083;-43
2023/10/19 11:04:06;;;;;;;6.13;1.90;;;19.20;68.20;;;;;;5042129;28;20061;-48
2023/10/19 11:06:34;;;;;;;7.35;1.65;;;19.20;67.80;;;;;;5040800;28;20053;-48
2023/10/19 11:09:11;;;;;;;7.13;1.92;;;19.20;67.40;;;;;;5041032;28;20053;-45
2023/10/19 11:11:39;;;;;;;8.73;1.92;;;19.20;66.70;;;;;;5041287;28;20045;-44
2023/10/19 11:14:11;;;;;;;8.60;1.92;;;19.30;66.90;;;;;;5042453;28;20064;-44
2023/10/19 11:16:39;;;;;;;9.25;1.67;;;19.30;66.90;;;;;;5040408;28;20075;-44
2023/10/19 11:19:06;;;;;;;8.35;1.63;;;19.30;67.10;;;;;;5042312;28;20119;-44
2023/10/19 11:21:34;;;;;;;7.82;1.88;;;19.30;67.30;;;;;;5040937;28;20045;-48
2023/10/19 11:24:01;;;;;;;4.70;1.60;;;19.30;67.40;;;;;;5040278;28;20072;-46
2023/10/19 11:26:29;;;;;;;9.35;2.30;;;19.30;67.30;;;;;;5041333;28;20064;-44
2023/10/19 11:29:04;;;;;;;7.32;2.00;;;19.30;67.20;;;;;;5041890;28;20080;-44
2023/10/19 11:31:37;;;;;;;9.00;2.45;;;19.30;67.30;;;;;;5038991;28;20048;-46
2023/10/19 11:34:05;;;;;;;8.50;2.17;;;19.20;67.30;;;;;;5037384;28;20065;-44
2023/10/19 11:36:32;;;;;;;8.40;1.92;;;19.20;67.40;;;;;;5037915;28;20048;-48
2023/10/19 11:39:00;;;;;;;8.13;2.00;;;19.20;67.70;;;;;;5039994;28;20056;-47
2023/10/19 11:41:27;;;;;;;8.43;2.10;;;19.20;67.80;;;;;;5042070;28;20509;-44
2023/10/19 11:43:54;;;;;;;14.98;2.20;;;19.20;68.10;;;;;;5040589;28;20057;-45
2023/10/19 11:46:25;;;;;;;7.65;2.28;;;19.20;68.40;;;;;;5036316;28;20064;-44
2023/10/19 11:48:52;;;;;;;7.72;2.22;;;19.20;68.70;;;;;;5038811;28;20593;-44
2023/10/19 11:51:19;;;;;;;10.75;1.98;;;19.10;68.80;;;;;;5039664;28;20053;-45
2023/10/19 11:53:46;;;;;;;11.43;2.40;;;19.10;68.80;;;;;;5039018;28;20417;-47
2023/10/19 11:56:16;;;;;;;8.48;2.55;;;19.10;68.70;;;;;;5037982;28;20064;-47
2023/10/19 11:58:46;;;;;;;7.28;2.13;;;19.10;68.70;;;;;;5037944;28;20093;-46
2023/10/19 12:01:16;;;;;;;10.63;2.50;;;19.20;68.70;;;;;;5036579;28;20516;-44
2023/10/19 12:03:45;;;;;;;11.07;2.17;;;19.10;68.70;;;;;;5038289;28;20056;-46
2023/10/19 12:06:18;;;;;;;10.93;2.10;;;19.10;68.80;;;;;;5037762;28;20394;-46
2023/10/19 12:08:46;;;;;;;8.55;2.10;;;19.10;68.90;;;;;;5039552;28;20048;-45
2023/10/19 12:11:16;;;;;;;9.52;2.90;;;19.10;68.90;;;;;;5039003;28;20064;-44
2023/10/19 12:13:44;;;;;;;8.63;2.22;;;19.10;69.00;;;;;;5038655;28;20049;-44
2023/10/19 12:16:12;;;;;;;11.00;2.25;;;19.10;68.90;;;;;;5037071;28;20056;-46
2023/10/19 12:18:41;;;;;;;8.20;2.28;;;19.10;68.90;;;;;;5037435;28;20425;-48
2023/10/19 12:21:12;;;;;;;7.28;2.00;;;19.00;68.90;;;;;;5041371;28;20056;-49
2023/10/19 12:23:40;;;;;;;7.57;2.03;;;19.00;69.00;;;;;;5040461;28;20048;-44
2023/10/19 12:26:11;;;;;;;12.20;2.63;;;19.00;69.20;;;;;;5040908;28;20053;-43
2023/10/19 12:28:39;;;;;;;5.57;1.67;;;19.00;69.30;;;;;;5038867;28;20053;-45
2023/10/19 12:31:08;;;;;;;9.45;2.70;;;19.00;69.50;;;;;;5039294;28;20075;-43
2023/10/19 12:33:36;;;;;;;7.07;1.67;;;18.90;69.60;;;;;;5037805;28;20502;-48
2023/10/19 12:36:22;;;;;;;9.48;1.80;;;19.00;69.90;;;;;;5038076;28;20420;-48
2023/10/19 12:38:51;;;;;;;5.80;1.52;;;18.90;69.90;;;;;;5041737;28;20061;-47
2023/10/19 12:41:18;;;;;;;7.97;1.75;;;18.90;70.20;;;;;;5037634;28;20401;-45
2023/10/19 12:43:46;;;;;;;11.18;1.75;;;18.90;70.10;;;;;;5037305;28;20056;-46
2023/10/19 12:46:15;;;;;;;9.15;1.67;;;19.00;70.40;;;;;;5036899;28;20528;-45
2023/10/19 12:48:43;;;;;;;4.70;1.58;;;18.90;70.40;;;;;;5038008;28;20420;-44
2023/10/19 12:51:11;;;;;;;7.55;2.00;;;19.00;70.60;;;;;;5038050;28;20065;-45
2023/10/19 12:53:39;;;;;;;5.90;1.60;;;19.00;70.70;;;;;;5039138;28;20079;-45